createdAt,value
2017-08-31T07:53:54.919Z,983.8
2017-08-31T07:54:18.985Z,983.8
2017-08-31T07:54:46.220Z,983.8
2017-08-31T07:55:04.115Z,983.8
2017-08-31T07:56:03.165Z,983.8
2017-08-31T07:57:04.199Z,983.8
2017-08-31T07:58:02.877Z,983.8
2017-08-31T07:59:03.452Z,983.8
2017-08-31T08:00:03.722Z,983.8
2017-08-31T08:01:03.533Z,983.8
2017-08-31T08:02:03.752Z,983.8
2017-08-31T08:03:03.800Z,983.8
2017-08-31T08:04:04.494Z,983.9
2017-08-31T08:05:04.211Z,983.9
2017-08-31T08:06:04.665Z,983.9
2017-08-31T08:07:04.713Z,983.9
2017-08-31T08:08:04.750Z,984
2017-08-31T08:09:04.785Z,984
2017-08-31T08:10:04.820Z,984
2017-08-31T08:11:04.866Z,984
2017-08-31T08:12:03.557Z,984.1
2017-08-31T08:12:20.400Z,984.1
2017-08-31T08:14:06.651Z,984.2
2017-08-31T08:15:02.730Z,984.2
2017-08-31T08:15:44.734Z,984.1
2017-08-31T08:16:03.705Z,984.1
2017-08-31T08:17:18.992Z,984.1
2017-08-31T08:18:02.638Z,984.2
2017-08-31T08:19:03.866Z,984.4
2017-08-31T08:20:02.913Z,984.3
2017-08-31T08:21:03.792Z,984.4
2017-08-31T08:22:04.001Z,984.5
2017-08-31T08:23:03.238Z,984.5
2017-08-31T08:24:35.016Z,984.5
2017-08-31T08:25:03.252Z,984.5
2017-08-31T08:26:03.286Z,984.5
2017-08-31T08:27:03.543Z,984.4
2017-08-31T08:28:03.772Z,984.4
2017-08-31T08:29:03.631Z,984.4
2017-08-31T08:30:03.995Z,984.5
2017-08-31T08:31:03.027Z,984.5
2017-08-31T08:32:03.394Z,984.5
2017-08-31T08:33:03.655Z,984.5
2017-08-31T08:34:04.136Z,984.5
2017-08-31T08:35:02.998Z,984.6
2017-08-31T08:36:03.029Z,984.6
2017-08-31T08:37:03.286Z,984.6
2017-08-31T08:38:03.503Z,984.6
2017-08-31T08:39:03.558Z,984.7
2017-08-31T08:40:03.819Z,984.7
2017-08-31T08:41:04.167Z,984.6
2017-08-31T08:42:03.253Z,984.8
2017-08-31T08:43:03.103Z,984.8
2017-08-31T08:44:03.955Z,984.8
2017-08-31T08:45:03.988Z,984.8
2017-08-31T08:46:03.859Z,984.9
2017-08-31T08:47:02.947Z,984.9
2017-08-31T08:48:03.998Z,984.9
2017-08-31T08:49:03.847Z,984.9
2017-08-31T08:50:03.698Z,985
2017-08-31T08:51:03.940Z,984.9
2017-08-31T08:52:03.320Z,985
2017-08-31T08:53:03.552Z,985
2017-08-31T08:54:03.777Z,985
2017-08-31T08:55:04.012Z,985
2017-08-31T08:56:04.241Z,985
2017-08-31T08:57:02.901Z,985
2017-08-31T08:58:02.948Z,985
2017-08-31T08:59:02.992Z,985.1
2017-08-31T09:00:03.416Z,985.1
2017-08-31T09:01:03.472Z,985.2
2017-08-31T09:02:04.054Z,985.1
2017-08-31T09:03:04.277Z,985.3
2017-08-31T09:04:04.123Z,985.3
2017-08-31T09:05:03.782Z,985.3
2017-08-31T09:06:04.000Z,985.3
2017-08-31T09:07:03.491Z,985.3
2017-08-31T09:08:03.534Z,985.3
2017-08-31T09:09:03.606Z,985.2
2017-08-31T09:10:03.451Z,985.3
2017-08-31T09:11:03.304Z,985.3
2017-08-31T09:12:03.352Z,985.4
2017-08-31T09:13:03.497Z,985.3
2017-08-31T09:14:03.723Z,985.3
2017-08-31T09:15:03.568Z,985.4
2017-08-31T09:16:03.794Z,985.4
2017-08-31T09:17:04.025Z,985.4
2017-08-31T09:18:04.061Z,985.5
2017-08-31T09:19:04.295Z,985.5
2017-08-31T09:20:03.576Z,985.5
2017-08-31T09:21:03.428Z,985.4
2017-08-31T09:22:03.080Z,985.5
2017-08-31T09:23:04.102Z,985.5
2017-08-31T09:24:04.127Z,985.6
2017-08-31T09:25:04.000Z,985.6
2017-08-31T09:26:04.030Z,985.6
2017-08-31T09:27:04.282Z,985.7
2017-08-31T09:28:03.506Z,985.7
2017-08-31T09:29:03.895Z,985.7
2017-08-31T09:30:03.939Z,985.7
2017-08-31T09:31:03.975Z,985.7
2017-08-31T09:32:04.224Z,985.8
2017-08-31T09:33:03.453Z,985.7
2017-08-31T09:34:03.510Z,985.8
2017-08-31T09:35:03.544Z,985.8
2017-08-31T09:36:03.384Z,985.8
2017-08-31T09:37:03.613Z,985.8
2017-08-31T09:38:03.843Z,985.8
2017-08-31T09:39:03.716Z,985.8
2017-08-31T09:40:04.073Z,985.8
2017-08-31T09:41:04.300Z,985.8
2017-08-31T09:42:03.326Z,985.8
2017-08-31T09:43:03.751Z,985.8
2017-08-31T09:44:03.800Z,985.9
2017-08-31T09:45:03.645Z,985.8
2017-08-31T09:46:03.514Z,985.8
2017-08-31T09:47:03.726Z,985.8
2017-08-31T09:48:03.745Z,985.8
2017-08-31T09:49:03.589Z,985.9
2017-08-31T09:50:03.252Z,985.9
2017-08-31T09:51:04.465Z,985.9
2017-08-31T09:52:03.678Z,986
2017-08-31T09:53:03.740Z,986
2017-08-31T09:54:03.968Z,986
2017-08-31T09:56:03.797Z,986.1
2017-08-31T09:57:03.818Z,986.1
2017-08-31T09:58:04.034Z,986
2017-08-31T09:59:04.061Z,986.1
2017-08-31T10:00:04.276Z,986
2017-08-31T10:01:03.724Z,986.2
2017-08-31T10:02:04.117Z,986.2
2017-08-31T10:03:03.778Z,986.2
2017-08-31T10:04:03.810Z,986.2
2017-08-31T10:05:04.067Z,986.3
2017-08-31T10:06:04.312Z,986.3
2017-08-31T10:07:03.559Z,986.3
2017-08-31T10:08:03.451Z,986.3
2017-08-31T10:09:03.329Z,986.4
2017-08-31T10:10:03.215Z,986.4
2017-08-31T10:11:03.486Z,986.4
2017-08-31T10:12:03.740Z,986.4
2017-08-31T10:13:04.182Z,986.4
2017-08-31T10:14:03.463Z,986.4
2017-08-31T10:15:03.939Z,986.4
2017-08-31T10:16:03.625Z,986.5
2017-08-31T10:17:03.893Z,986.5
2017-08-31T10:18:04.169Z,986.4
2017-08-31T10:19:03.446Z,986.5
2017-08-31T10:20:03.787Z,986.5
2017-08-31T10:21:04.523Z,986.5
2017-08-31T10:22:04.934Z,986.5
2017-08-31T10:23:05.304Z,986.5
2017-08-31T10:24:04.021Z,986.6
2017-08-31T10:25:03.386Z,986.6
2017-08-31T10:26:04.467Z,986.6
2017-08-31T10:27:04.560Z,986.7
2017-08-31T10:28:04.289Z,986.7
2017-08-31T10:29:05.063Z,986.7
2017-08-31T10:30:03.797Z,986.7
2017-08-31T10:31:05.249Z,986.7
2017-08-31T10:32:04.334Z,986.7
2017-08-31T10:33:04.771Z,986.7
2017-08-31T10:34:03.857Z,986.7
2017-08-31T10:35:03.232Z,986.7
2017-08-31T10:36:04.653Z,986.7
2017-08-31T10:37:04.433Z,986.8
2017-08-31T10:38:05.240Z,986.9
2017-08-31T10:39:04.666Z,986.8
2017-08-31T10:40:04.703Z,986.8
2017-08-31T10:41:04.405Z,986.7
2017-08-31T10:42:04.823Z,986.8
2017-08-31T10:43:04.177Z,986.7
2017-08-31T10:44:04.594Z,986.8
2017-08-31T10:45:05.193Z,986.8
2017-08-31T10:46:03.899Z,986.8
2017-08-31T12:17:30.288Z,987.5
2017-08-31T12:18:03.298Z,987.5
2017-08-31T12:19:03.358Z,987.4
2017-08-31T12:20:02.606Z,987.4
2017-08-31T12:21:03.079Z,987.5
2017-08-31T12:22:02.943Z,987.4
2017-08-31T12:23:02.992Z,987.3
2017-08-31T12:24:35.155Z,987.3
2017-08-31T12:25:03.356Z,987.4
2017-08-31T12:26:03.012Z,987.3
2017-08-31T12:27:02.860Z,987.4
2017-08-31T12:28:02.892Z,987.3
2017-08-31T12:29:02.936Z,987.3
2017-08-31T12:30:03.193Z,987.3
2017-08-31T12:31:03.217Z,987.3
2017-08-31T12:32:03.257Z,987.4
2017-08-31T12:33:03.641Z,987.4
2017-08-31T12:34:02.867Z,987.4
2017-08-31T12:35:02.711Z,987.4
2017-08-31T12:36:02.926Z,987.4
2017-08-31T12:37:02.937Z,987.4
2017-08-31T12:38:02.966Z,987.4
2017-08-31T12:39:03.359Z,987.4
2017-08-31T12:40:02.371Z,987.4
2017-08-31T12:41:03.396Z,987.5
2017-08-31T12:42:02.443Z,987.5
2017-08-31T12:43:03.475Z,987.6
2017-08-31T12:44:03.977Z,987.6
2017-08-31T12:45:03.023Z,987.6
2017-08-31T12:46:03.263Z,987.7
2017-08-31T12:47:02.892Z,987.6
2017-08-31T12:48:03.277Z,987.6
2017-08-31T12:49:03.112Z,987.7
2017-08-31T12:50:02.984Z,987.7
2017-08-31T12:51:03.012Z,987.6
2017-08-31T12:52:03.422Z,987.7
2017-08-31T12:53:03.878Z,987.7
2017-08-31T12:54:02.762Z,987.7
2017-08-31T12:55:02.959Z,987.7
2017-08-31T12:56:02.831Z,987.8
2017-08-31T12:57:02.872Z,987.7
2017-08-31T12:58:02.939Z,987.6
2017-08-31T12:59:02.833Z,987.7
2017-08-31T13:00:03.266Z,987.7
2017-08-31T13:01:02.915Z,987.7
2017-08-31T13:02:03.158Z,987.6
2017-08-31T13:03:03.431Z,987.6
2017-08-31T13:04:02.668Z,987.6
2017-08-31T13:05:02.686Z,987.6
2017-08-31T13:06:02.539Z,987.6
2017-08-31T13:07:02.750Z,987.6
2017-08-31T13:08:02.786Z,987.6
2017-08-31T13:09:03.007Z,987.6
2017-08-31T13:10:02.852Z,987.6
2017-08-31T13:11:03.242Z,987.6
2017-08-31T13:12:03.081Z,987.6
2017-08-31T13:13:03.294Z,987.6
2017-08-31T13:14:02.944Z,987.6
2017-08-31T13:15:03.365Z,987.6
2017-08-31T13:16:02.574Z,987.7
2017-08-31T13:17:02.611Z,987.6
2017-08-31T13:18:02.654Z,987.6
2017-08-31T13:19:02.670Z,987.6
2017-08-31T13:20:02.730Z,987.6
2017-08-31T13:21:02.589Z,987.6
2017-08-31T13:22:03.091Z,987.6
2017-08-31T13:23:03.132Z,987.7
2017-08-31T13:24:03.154Z,987.6
2017-08-31T13:25:02.992Z,987.6
2017-08-31T13:26:02.671Z,987.7
2017-08-31T13:27:02.519Z,987.6
2017-08-31T13:28:02.564Z,987.6
2017-08-31T13:29:02.436Z,987.6
2017-08-31T13:30:02.899Z,987.6
2017-08-31T13:31:03.136Z,987.6
2017-08-31T13:32:03.368Z,987.5
2017-08-31T13:33:03.024Z,987.6
2017-08-31T13:34:03.236Z,987.6
2017-08-31T13:35:03.271Z,987.6
2017-08-31T13:36:03.098Z,987.7
2017-08-31T13:37:02.934Z,987.6
2017-08-31T13:38:03.702Z,987.6
2017-08-31T13:39:02.937Z,987.5
2017-08-31T13:40:03.170Z,987.6
2017-08-31T13:41:02.418Z,987.5
2017-08-31T13:42:02.818Z,987.6
2017-08-31T13:43:02.682Z,987.5
2017-08-31T13:44:02.945Z,987.6
2017-08-31T13:45:02.412Z,987.7
2017-08-31T13:46:02.474Z,987.7
2017-08-31T13:47:03.365Z,987.8
2017-08-31T13:48:02.761Z,987.8
2017-08-31T13:49:03.609Z,987.8
2017-08-31T13:50:02.764Z,987.9
2017-08-31T13:51:03.192Z,987.9
2017-08-31T13:52:02.943Z,987.9
2017-08-31T13:53:02.986Z,987.8
2017-08-31T13:54:02.875Z,987.8
2017-08-31T13:55:02.914Z,987.7
2017-08-31T13:56:02.584Z,987.7
2017-08-31T13:57:02.829Z,987.7
2017-08-31T13:58:02.706Z,987.7
2017-08-31T13:59:03.143Z,987.7
2017-08-31T14:01:02.297Z,987.6
2017-08-31T14:02:02.555Z,987.6
2017-08-31T14:03:02.401Z,987.6
2017-08-31T14:04:02.658Z,987.6
2017-08-31T14:05:03.089Z,987.6
2017-08-31T14:06:03.479Z,987.6
2017-08-31T14:07:02.543Z,987.6
2017-08-31T14:08:02.588Z,987.6
2017-08-31T14:09:03.036Z,987.6
2017-08-31T14:10:03.267Z,987.6
2017-08-31T14:11:02.129Z,987.6
2017-08-31T14:12:03.359Z,987.6
2017-08-31T14:13:02.418Z,987.6
2017-08-31T14:14:02.710Z,987.6
2017-08-31T14:15:02.948Z,987.6
2017-08-31T14:16:03.398Z,987.6
2017-08-31T14:17:02.933Z,987.6
2017-08-31T14:18:03.188Z,987.6
2017-08-31T14:19:03.420Z,987.5
2017-08-31T14:20:02.650Z,987.6
2017-08-31T14:21:02.918Z,987.6
2017-08-31T14:22:03.138Z,987.6
2017-08-31T14:23:02.987Z,987.6
2017-08-31T14:24:03.008Z,987.5
2017-08-31T14:25:03.121Z,987.6
2017-08-31T14:26:04.151Z,987.6
2017-08-31T14:27:02.867Z,987.5
2017-08-31T14:28:04.240Z,987.5
2017-08-31T14:29:02.903Z,987.5
2017-08-31T14:30:02.875Z,987.5
2017-08-31T14:30:37.408Z,987.5
2017-08-31T14:31:03.776Z,987.5
2017-08-31T14:31:59.313Z,987.5
2017-08-31T14:32:04.026Z,987.5
2017-08-31T14:33:03.584Z,987.5
2017-08-31T14:34:03.765Z,987.5
2017-08-31T14:35:03.284Z,987.5
2017-08-31T14:35:51.002Z,987.5
2017-08-31T14:36:03.625Z,987.5
2017-08-31T14:36:51.806Z,987.5
2017-08-31T14:37:03.932Z,987.6
2017-08-31T14:37:54.021Z,987.5
2017-08-31T14:38:04.038Z,987.5
2017-08-31T14:39:02.904Z,987.5
2017-08-31T14:40:02.387Z,987.5
2017-08-31T14:41:03.220Z,987.5
2017-08-31T14:42:02.822Z,987.4
2017-08-31T14:43:35.133Z,987.5
2017-08-31T14:44:03.056Z,987.5
2017-08-31T14:45:03.090Z,987.5
2017-08-31T14:46:02.897Z,987.5
2017-08-31T14:47:02.118Z,987.6
2017-08-31T14:48:03.082Z,987.5
2017-08-31T14:49:02.966Z,987.4
2017-08-31T14:50:02.586Z,987.4
2017-08-31T14:51:01.983Z,987.4
2017-08-31T14:52:02.686Z,987.4
2017-08-31T14:53:02.694Z,987.5
2017-08-31T14:54:02.344Z,987.4
2017-08-31T14:55:02.969Z,987.4
2017-08-31T14:56:03.173Z,987.4
2017-08-31T14:57:03.166Z,987.4
2017-08-31T14:58:02.736Z,987.5
2017-08-31T14:59:02.748Z,987.5
2017-08-31T15:00:02.801Z,987.5
2017-08-31T15:01:02.891Z,987.5
2017-08-31T15:02:02.696Z,987.4
2017-08-31T15:03:02.518Z,987.4
2017-08-31T15:04:03.694Z,987.3
2017-08-31T15:05:02.483Z,987.4
2017-08-31T15:06:03.456Z,987.4
2017-08-31T15:07:03.243Z,987.5
2017-08-31T15:08:03.007Z,987.5
2017-08-31T15:09:02.748Z,987.5
2017-08-31T15:10:02.522Z,987.4
2017-08-31T15:11:03.089Z,987.5
2017-08-31T15:12:03.268Z,987.5
2017-08-31T15:13:03.206Z,987.5
2017-08-31T15:14:02.779Z,987.5
2017-08-31T15:15:02.713Z,987.5
2017-08-31T15:16:02.937Z,987.4
2017-08-31T15:17:02.476Z,987.4
2017-08-31T15:18:02.629Z,987.5
2017-08-31T15:19:02.367Z,987.5
2017-08-31T15:20:02.901Z,987.5
2017-08-31T15:21:03.260Z,987.4
2017-08-31T15:22:02.950Z,987.5
2017-08-31T15:23:02.928Z,987.5
2017-08-31T15:24:02.779Z,987.5
2017-08-31T15:25:02.561Z,987.4
2017-08-31T15:26:03.150Z,987.5
2017-08-31T15:27:03.427Z,987.4
2017-08-31T15:28:03.371Z,987.4
2017-08-31T15:29:03.306Z,987.3
2017-08-31T15:30:03.040Z,987.4
2017-08-31T15:31:02.455Z,987.4
2017-08-31T15:32:03.508Z,987.3
2017-08-31T15:33:03.058Z,987.4
2017-08-31T15:34:02.796Z,987.3
2017-08-31T15:35:02.330Z,987.3
2017-08-31T15:36:04.696Z,987.3
2017-08-31T15:37:05.258Z,987.3
2017-08-31T15:38:03.203Z,987.3
2017-08-31T15:39:02.986Z,987.3
2017-08-31T15:40:02.355Z,987.3
2017-08-31T15:41:03.119Z,987.3
2017-08-31T15:42:02.834Z,987.3
2017-08-31T15:43:02.606Z,987.3
2017-08-31T15:44:02.173Z,987.4
2017-08-31T15:45:02.991Z,987.4
2017-08-31T15:46:02.764Z,987.4
2017-08-31T15:47:02.364Z,987.4
2017-08-31T15:48:03.146Z,987.4
2017-08-31T15:49:02.883Z,987.4
2017-08-31T15:50:02.808Z,987.4
2017-08-31T15:51:02.949Z,987.4
2017-08-31T15:52:02.731Z,987.5
2017-08-31T15:53:03.134Z,987.5
2017-08-31T15:54:02.870Z,987.4
2017-08-31T15:55:03.281Z,987.5
2017-08-31T15:56:03.257Z,987.5
2017-08-31T15:57:03.079Z,987.4
2017-08-31T15:58:02.660Z,987.5
2017-08-31T15:59:03.208Z,987.4
2017-08-31T16:00:02.603Z,987.4
2017-08-31T16:01:03.074Z,987.4
2017-08-31T16:02:02.618Z,987.4
2017-08-31T16:03:02.159Z,987.5
2017-08-31T16:04:02.849Z,987.5
2017-08-31T16:05:02.427Z,987.5
2017-08-31T16:06:03.346Z,987.5
2017-08-31T16:07:02.958Z,987.6
2017-08-31T16:08:02.888Z,987.6
2017-08-31T16:09:03.162Z,987.6
2017-08-31T16:10:02.815Z,987.6
2017-08-31T16:11:02.812Z,987.7
2017-08-31T16:12:02.961Z,987.7
2017-08-31T16:13:02.726Z,987.6
2017-08-31T16:14:02.504Z,987.7
2017-08-31T16:15:03.236Z,987.6
2017-08-31T16:16:03.133Z,987.7
2017-08-31T16:17:03.342Z,987.6
2017-08-31T16:18:03.365Z,987.6
2017-08-31T16:19:03.328Z,987.6
2017-08-31T16:20:03.476Z,987.5
2017-08-31T16:21:03.409Z,987.5
2017-08-31T16:22:03.330Z,987.6
2017-08-31T16:23:02.935Z,987.5
2017-08-31T16:24:02.476Z,987.5
2017-08-31T16:25:02.889Z,987.5
2017-08-31T16:26:02.940Z,987.5
2017-08-31T16:27:03.077Z,987.6
2017-08-31T16:28:02.839Z,987.5
2017-08-31T16:29:03.027Z,987.5
2017-08-31T16:30:02.583Z,987.5
2017-08-31T16:31:02.431Z,987.6
2017-08-31T16:32:03.608Z,987.6
2017-08-31T16:33:03.361Z,987.6
2017-08-31T16:34:03.738Z,987.6
2017-08-31T16:35:02.620Z,987.6
2017-08-31T16:36:03.142Z,987.6
2017-08-31T16:37:03.320Z,987.6
2017-08-31T16:38:03.019Z,987.7
2017-08-31T16:39:39.044Z,987.9
2017-08-31T16:40:03.955Z,988
2017-08-31T16:41:03.757Z,987.9
2017-08-31T16:42:03.516Z,987.9
2017-08-31T16:43:03.488Z,987.9
2017-08-31T16:44:03.608Z,988
2017-08-31T16:45:03.099Z,988
2017-08-31T16:46:03.552Z,988
2017-08-31T16:47:03.541Z,988
2017-08-31T16:48:03.462Z,988
2017-08-31T16:49:03.259Z,987.9
2017-08-31T16:50:03.802Z,987.9
2017-08-31T16:51:03.581Z,988
2017-08-31T16:52:03.696Z,988
2017-08-31T16:53:03.465Z,988.1
2017-08-31T16:54:02.857Z,988.1
2017-08-31T16:55:03.815Z,988.1
2017-08-31T16:56:02.987Z,988.1
2017-08-31T16:57:03.550Z,988.1
2017-08-31T16:58:02.911Z,988.1
2017-08-31T16:59:03.289Z,988.2
2017-08-31T17:00:03.454Z,988.2
2017-08-31T17:01:02.803Z,988.2
2017-08-31T17:02:02.217Z,988.2
2017-08-31T17:03:03.137Z,988.1
2017-08-31T17:04:03.021Z,988.1
2017-08-31T17:05:02.762Z,988.1
2017-08-31T17:06:02.692Z,988.1
2017-08-31T17:07:02.926Z,988.2
2017-08-31T17:08:02.444Z,988.1
2017-08-31T17:09:02.758Z,988.1
2017-08-31T17:10:02.726Z,988.1
2017-08-31T17:11:03.075Z,988.2
2017-08-31T17:12:02.685Z,988.1
2017-08-31T17:13:03.397Z,988.1
2017-08-31T17:14:03.502Z,988.1
2017-08-31T17:15:02.517Z,988.2
2017-08-31T17:16:03.340Z,988.2
2017-08-31T17:17:03.159Z,988.2
2017-08-31T17:18:03.350Z,988.2
2017-08-31T17:19:03.512Z,988.2
2017-08-31T17:20:03.436Z,988.3
2017-08-31T17:21:03.206Z,988.3
2017-08-31T17:22:03.157Z,988.3
2017-08-31T17:23:03.346Z,988.4
2017-08-31T17:24:03.090Z,988.4
2017-08-31T17:25:03.109Z,988.4
2017-08-31T17:26:02.897Z,988.4
2017-08-31T17:27:02.922Z,988.4
2017-08-31T17:28:02.877Z,988.4
2017-08-31T17:29:03.193Z,988.4
2017-08-31T17:30:03.662Z,988.4
2017-08-31T17:31:02.413Z,988.4
2017-08-31T17:32:03.539Z,988.4
2017-08-31T17:33:02.477Z,988.4
2017-08-31T17:34:02.878Z,988.4
2017-08-31T17:35:02.828Z,988.4
2017-08-31T17:36:02.992Z,988.3
2017-08-31T17:37:02.621Z,988.3
2017-08-31T17:38:03.038Z,988.3
2017-08-31T17:39:03.877Z,988.3
2017-08-31T17:40:02.540Z,988.4
2017-08-31T17:41:03.975Z,988.4
2017-08-31T17:42:02.737Z,988.3
2017-08-31T17:43:02.430Z,988.4
2017-08-31T17:44:02.993Z,988.4
2017-08-31T17:45:02.981Z,988.5
2017-08-31T17:46:02.386Z,988.5
2017-08-31T17:47:03.154Z,988.5
2017-08-31T17:48:03.281Z,988.5
2017-08-31T17:49:03.050Z,988.5
2017-08-31T17:50:02.796Z,988.6
2017-08-31T17:51:02.740Z,988.6
2017-08-31T17:52:03.450Z,988.6
2017-08-31T17:53:03.209Z,988.6
2017-08-31T17:54:02.771Z,988.7
2017-08-31T17:55:02.971Z,988.7
2017-08-31T17:56:02.731Z,988.7
2017-08-31T17:57:02.486Z,988.7
2017-08-31T17:58:03.424Z,988.7
2017-08-31T17:59:02.976Z,988.7
2017-08-31T18:00:03.197Z,988.7
2017-08-31T18:01:02.878Z,988.6
2017-08-31T18:02:03.035Z,988.7
2017-08-31T18:03:02.770Z,988.7
2017-08-31T18:04:28.539Z,988.5
2017-08-31T18:05:03.215Z,988.4
2017-08-31T18:06:04.205Z,988.4
2017-08-31T18:07:04.375Z,988.3
2017-08-31T18:08:03.503Z,988.3
2017-08-31T18:09:03.673Z,988.3
2017-08-31T18:10:02.603Z,988.3
2017-08-31T18:11:03.585Z,988.3
2017-08-31T18:12:03.784Z,988.3
2017-08-31T18:13:03.323Z,988.4
2017-08-31T18:14:04.206Z,988.3
2017-08-31T18:15:03.404Z,988.4
2017-08-31T18:16:02.947Z,988.4
2017-08-31T18:17:03.678Z,988.4
2017-08-31T18:18:03.487Z,988.4
2017-08-31T18:19:03.051Z,988.4
2017-08-31T18:20:03.705Z,988.4
2017-08-31T18:21:02.950Z,988.4
2017-08-31T18:22:03.447Z,988.5
2017-08-31T18:23:03.581Z,988.5
2017-08-31T18:24:03.707Z,988.5
2017-08-31T18:25:03.660Z,988.5
2017-08-31T18:26:03.514Z,988.5
2017-08-31T18:27:03.646Z,988.5
2017-08-31T18:28:03.575Z,988.5
2017-08-31T18:29:03.536Z,988.5
2017-08-31T18:30:03.468Z,988.5
